Pioneer — WDG7407 — position and weather

sailwx.info

Track history (hours):
 
Tides and Currents Weather Stations Pressure Air Temp Water Temp Dewpoint Dewpoint Depression Visibility Wind Speed Wind Dir Waves Ship Positions

Pioneer

Owner: Pennisi II, Giuseppe G, Monterey, CA. More information available from US FCC via Universal Licensing System and Coast Guard Vessel Documentation Center.

Last reported at 2017-Dec-11 16:49 UTC. Time now 2017-Dec-12 19:59 UTC.
Position N 37°49' W 122°25'.

Length 19 m.

Type: Fishing. MMSI: 367566960.

Date/timePositionNaut miles runAvg speedWind from/ knotsBaromVisibWave heightAir tempDewpointWater temp
2017-Dec-11 16:49N 37°49' W 122°25'0 0.0
2017-Dec-11 15:23N 37°49' W 122°25'0 0.0
2017-Dec-11 01:50N 37°49' W 122°25'0 0.0
2017-Dec-11 01:23N 37°49' W 122°25'0 0.0
2017-Dec-10 09:06N 37°49' W 122°25'0 0.0
2017-Dec-09 17:25N 37°49' W 122°25'0 0.0
2017-Dec-09 16:43N 37°49' W 122°25'0 0.0
2017-Dec-09 16:13N 37°49' W 122°25'0 0.0
2017-Dec-09 15:52N 37°49' W 122°25'0 0.0
2017-Dec-09 12:01N 37°49' W 122°25'0 0.0
2017-Dec-09 11:58N 37°49' W 122°25'0 0.0
2017-Dec-09 11:28N 37°49' W 122°25'3 6.2
2017-Dec-09 11:00N 37°49' W 122°29'5 9.2
2017-Dec-09 10:26N 37°46' W 122°34'1 0.0
2017-Dec-08 10:21N 37°47' W 122°33'2 5.4
2017-Dec-08 10:00N 37°48' W 122°31'2 4.4
2017-Dec-08 09:30N 37°49' W 122°29'2 3.1
2017-Dec-08 09:00N 37°49' W 122°27'2 3.1
2017-Dec-08 08:30N 37°49' W 122°25'0 0.0
2017-Dec-08 06:33N 37°49' W 122°25'0 0.0
2017-Dec-08 06:18N 37°49' W 122°25'0 0.0
2017-Dec-08 06:00N 37°49' W 122°25'0 0.0
2017-Dec-08 03:24N 37°49' W 122°25'0 0.0
2017-Dec-08 02:54N 37°49' W 122°25'0 0.0
2017-Dec-08 02:30N 37°49' W 122°25'0 0.0
2017-Dec-08 01:12N 37°49' W 122°25'0 0.0
2017-Dec-07 21:47N 37°49' W 122°25'0 0.3
2017-Dec-07 21:25N 37°49' W 122°25'0 0.0
2017-Dec-07 21:00N 37°49' W 122°25'0 0.2
2017-Dec-07 20:27N 37°49' W 122°25'0 0.0
2017-Dec-07 14:34N 37°49' W 122°25'0 0.0
2017-Dec-07 05:52N 37°49' W 122°25'0 0.0
2017-Dec-07 05:25N 37°49' W 122°25'0 0.0
2017-Dec-07 03:55N 37°49' W 122°25'0 0.0
2017-Dec-07 03:28N 37°49' W 122°25'0 0.0
2017-Dec-07 01:16N 37°49' W 122°25'  
2017-Dec-04 09:12N 37°49' W 122°25'0 0.0
2017-Dec-04 04:18N 37°49' W 122°25'0 0.0
2017-Dec-04 03:51N 37°49' W 122°25'0 0.0
2017-Dec-04 02:24N 37°49' W 122°25'0 0.0
2017-Dec-03 01:54N 37°49' W 122°25'0 0.0
2017-Dec-02 19:59N 37°49' W 122°25'1 2.6
2017-Dec-02 19:30N 37°49' W 122°27'3 5.1
2017-Dec-02 18:59N 37°48' W 122°30'  
Track history (hours):
 
Tides and Currents Weather Stations Pressure Air Temp Water Temp Dewpoint Dewpoint Depression Visibility Wind Speed Wind Dir Waves Ship Positions

Pioneer

Owner: Pennisi II, Giuseppe G, Monterey, CA. More information available from US FCC via Universal Licensing System and Coast Guard Vessel Documentation Center.

Last reported at 2017-Dec-11 16:49 UTC. Time now 2017-Dec-12 19:59 UTC.
Position N 37°49' W 122°25'.

Length 19 m.

Type: Fishing. MMSI: 367566960.

Date/timePositionNaut miles runAvg speedWind from/ knotsBaromVisibWave heightAir tempDewpointWater temp
2017-Dec-11 16:49N 37°49' W 122°25'0 0.0
2017-Dec-11 15:23N 37°49' W 122°25'0 0.0
2017-Dec-11 01:50N 37°49' W 122°25'0 0.0
2017-Dec-11 01:23N 37°49' W 122°25'0 0.0
2017-Dec-10 09:06N 37°49' W 122°25'0 0.0
2017-Dec-09 17:25N 37°49' W 122°25'0 0.0
2017-Dec-09 16:43N 37°49' W 122°25'0 0.0
2017-Dec-09 16:13N 37°49' W 122°25'0 0.0
2017-Dec-09 15:52N 37°49' W 122°25'0 0.0
2017-Dec-09 12:01N 37°49' W 122°25'0 0.0
2017-Dec-09 11:58N 37°49' W 122°25'0 0.0
2017-Dec-09 11:28N 37°49' W 122°25'3 6.2
2017-Dec-09 11:00N 37°49' W 122°29'5 9.2
2017-Dec-09 10:26N 37°46' W 122°34'1 0.0
2017-Dec-08 10:21N 37°47' W 122°33'2 5.4
2017-Dec-08 10:00N 37°48' W 122°31'2 4.4
2017-Dec-08 09:30N 37°49' W 122°29'2 3.1
2017-Dec-08 09:00N 37°49' W 122°27'2 3.1
2017-Dec-08 08:30N 37°49' W 122°25'0 0.0
2017-Dec-08 06:33N 37°49' W 122°25'0 0.0
2017-Dec-08 06:18N 37°49' W 122°25'0 0.0
2017-Dec-08 06:00N 37°49' W 122°25'0 0.0
2017-Dec-08 03:24N 37°49' W 122°25'0 0.0
2017-Dec-08 02:54N 37°49' W 122°25'0 0.0
2017-Dec-08 02:30N 37°49' W 122°25'0 0.0
2017-Dec-08 01:12N 37°49' W 122°25'0 0.0
2017-Dec-07 21:47N 37°49' W 122°25'0 0.3
2017-Dec-07 21:25N 37°49' W 122°25'0 0.0
2017-Dec-07 21:00N 37°49' W 122°25'0 0.2
2017-Dec-07 20:27N 37°49' W 122°25'0 0.0
2017-Dec-07 14:34N 37°49' W 122°25'0 0.0
2017-Dec-07 05:52N 37°49' W 122°25'0 0.0
2017-Dec-07 05:25N 37°49' W 122°25'0 0.0
2017-Dec-07 03:55N 37°49' W 122°25'0 0.0
2017-Dec-07 03:28N 37°49' W 122°25'0 0.0
2017-Dec-07 01:16N 37°49' W 122°25'  
2017-Dec-04 09:12N 37°49' W 122°25'0 0.0
2017-Dec-04 04:18N 37°49' W 122°25'0 0.0
2017-Dec-04 03:51N 37°49' W 122°25'0 0.0
2017-Dec-04 02:24N 37°49' W 122°25'0 0.0
2017-Dec-03 01:54N 37°49' W 122°25'0 0.0
2017-Dec-02 19:59N 37°49' W 122°25'1 2.6
2017-Dec-02 19:30N 37°49' W 122°27'3 5.1
2017-Dec-02 18:59N 37°48' W 122°30'  

Dump ship's entire track history